Time;durP1;ratioP1;P1;durP2;ratioP2;P2;SDS_P1;SDS_P2;PMS_P1;PMS_P2;Temp;Humidity;BMP_temperature;BMP_pressure;BME280_temperature;BME280_humidity;BME280_pressure;Samples;Min_cycle;Max_cycle;Signal;HPM_P1;HPM_P2
2023/07/20 00:00:04;;;;;;;13.48;9.90;;;;;;;17.77;74.70;100768.38;687715;28;1078;-79
2023/07/20 00:00:33;;;;;;;14.38;10.00;;;;;;;17.73;74.65;100761.38;685003;28;1374;-78
2023/07/20 00:00:54;;;;;;;13.80;9.67;;;;;;;17.73;74.67;100757.84;688406;28;1088;-79
2023/07/20 00:01:15;;;;;;;12.30;9.23;;;;;;;17.77;74.72;100772.81;687851;28;1379;-79
2023/07/20 00:01:36;;;;;;;12.13;8.70;;;;;;;17.78;74.58;100764.00;682484;28;1133;-79
2023/07/20 00:01:56;;;;;;;11.18;8.70;;;;;;;17.78;74.60;100767.50;677331;29;1194;-78
2023/07/20 00:02:17;;;;;;;11.93;9.17;;;;;;;17.83;74.42;100777.19;677220;29;1195;-78
2023/07/20 00:02:37;;;;;;;13.88;9.40;;;;;;;17.75;74.54;100764.88;677889;29;1054;-78
2023/07/20 00:03:18;;;;;;;14.20;9.43;;;;;;;17.76;74.71;100764.00;685667;28;765;-78
2023/07/20 00:03:39;;;;;;;11.95;9.70;;;;;;;17.77;74.64;100765.75;687921;28;1170;-78
2023/07/20 00:03:59;;;;;;;14.18;9.70;;;;;;;17.81;74.56;100769.25;687593;28;1237;-78
2023/07/20 00:04:20;;;;;;;14.63;9.43;;;;;;;17.76;74.48;100764.00;684968;28;957;-78
2023/07/20 00:04:41;;;;;;;13.67;9.40;;;;;;;17.80;74.66;100773.69;690543;28;1230;-79
2023/07/20 00:05:01;;;;;;;13.32;10.13;;;;;;;17.73;74.33;100758.72;690495;28;1098;-78
2023/07/20 00:05:24;;;;;;;13.88;9.98;;;;;;;17.80;74.60;100775.41;685166;28;1316;-77
2023/07/20 00:05:45;;;;;;;13.43;9.40;;;;;;;17.79;74.50;100774.56;684689;28;965;-78
2023/07/20 00:06:12;;;;;;;11.57;8.70;;;;;;;17.79;74.40;100771.91;682783;28;1444;-79
2023/07/20 00:06:33;;;;;;;11.18;9.10;;;;;;;17.75;74.50;100764.88;679737;28;1121;-79
2023/07/20 00:06:54;;;;;;;11.50;9.60;;;;;;;17.76;74.47;100768.41;682654;29;907;-78
2023/07/20 00:07:15;;;;;;;12.00;9.70;;;;;;;17.75;74.50;100761.34;682607;29;1371;-78
2023/07/20 00:07:36;;;;;;;11.73;9.40;;;;;;;17.81;74.55;100772.78;682570;28;1357;-79
2023/07/20 00:07:56;;;;;;;11.52;9.10;;;;;;;17.79;74.65;100771.91;679827;29;1232;-79
2023/07/20 00:08:18;;;;;;;10.75;9.10;;;;;;;17.80;74.63;100767.50;685095;28;1198;-78
2023/07/20 00:08:39;;;;;;;10.35;9.20;;;;;;;17.76;74.63;100768.41;685302;28;1468;-79
2023/07/20 00:08:59;;;;;;;10.40;9.20;;;;;;;17.73;74.63;100763.13;679795;28;1271;-79
2023/07/20 00:09:21;;;;;;;10.77;9.20;;;;;;;17.78;74.59;100770.13;689002;28;1158;-79
2023/07/20 00:09:42;;;;;;;11.13;9.45;;;;;;;17.80;74.69;100771.03;687023;28;1349;-78
2023/07/20 00:10:02;;;;;;;13.10;10.03;;;;;;;17.83;74.52;100774.53;682437;29;1109;-79
2023/07/20 00:10:23;;;;;;;13.60;10.10;;;;;;;17.77;74.44;100759.59;687695;28;1076;-78
2023/07/20 00:10:44;;;;;;;15.47;10.43;;;;;;;17.83;74.44;100764.88;685891;28;1067;-79
2023/07/20 00:11:04;;;;;;;14.63;10.00;;;;;;;17.79;74.37;100757.84;685383;28;1238;-79
2023/07/20 00:11:26;;;;;;;14.48;9.93;;;;;;;17.79;74.35;100764.00;685267;28;1054;-79
2023/07/20 00:11:51;;;;;;;12.48;9.50;;;;;;;17.80;74.34;100759.59;685258;28;1252;-79
2023/07/20 00:12:12;;;;;;;11.02;9.40;;;;;;;17.78;74.30;100762.22;685132;28;1100;-78
2023/07/20 00:12:33;;;;;;;12.73;9.60;;;;;;;17.82;74.45;100763.09;685073;28;1213;-80
2023/07/20 00:12:53;;;;;;;12.90;9.40;;;;;;;17.78;74.35;100756.94;682478;28;859;-79
2023/07/20 00:13:15;;;;;;;13.37;9.60;;;;;;;17.82;74.30;100760.44;682563;29;990;-78
2023/07/20 00:13:36;;;;;;;13.05;9.68;;;;;;;17.78;74.42;100751.66;685041;28;1362;-78
2023/07/20 00:13:57;;;;;;;13.50;9.75;;;;;;;17.78;74.18;100756.94;682554;29;931;-78
2023/07/20 00:14:18;;;;;;;13.30;9.32;;;;;;;17.84;74.35;100765.72;685674;28;1992;-78
2023/07/20 00:14:39;;;;;;;12.65;9.30;;;;;;;17.77;74.29;100757.81;684961;28;1361;-79
2023/07/20 00:14:59;;;;;;;12.20;9.20;;;;;;;17.76;74.32;100758.72;682483;29;1120;-78
2023/07/20 00:15:20;;;;;;;12.48;9.50;;;;;;;17.81;74.12;100761.34;677266;29;1146;-78
2023/07/20 00:15:41;;;;;;;13.50;9.40;;;;;;;17.85;74.16;100767.50;683703;28;1193;-78
2023/07/20 00:16:02;;;;;;;13.73;9.50;;;;;;;17.77;74.09;100749.91;685287;28;1005;-78
2023/07/20 00:16:22;;;;;;;13.63;9.10;;;;;;;17.81;73.93;100767.50;682531;28;1157;-78
2023/07/20 00:16:43;;;;;;;12.60;9.00;;;;;;;17.75;74.16;100751.69;683550;28;1087;-78
2023/07/20 00:17:03;;;;;;;14.75;8.75;;;;;;;17.77;74.22;100754.31;679717;28;1369;-78
2023/07/20 00:17:24;;;;;;;17.20;9.13;;;;;;;17.74;74.10;100744.66;682568;28;1002;-78
2023/07/20 00:17:45;;;;;;;17.03;9.03;;;;;;;17.78;74.13;100762.22;690449;28;1149;-79
2023/07/20 00:18:05;;;;;;;14.38;9.07;;;;;;;17.77;74.25;100757.81;687868;28;1115;-79
2023/07/20 00:18:26;;;;;;;12.32;8.85;;;;;;;17.84;74.10;100765.72;687884;28;1053;-79
2023/07/20 00:18:47;;;;;;;12.30;9.03;;;;;;;17.83;74.26;100769.25;687951;28;1049;-79
2023/07/20 00:19:08;;;;;;;10.77;8.75;;;;;;;17.80;74.01;100760.47;682421;29;1067;-78
2023/07/20 00:19:28;;;;;;;11.98;8.77;;;;;;;17.77;74.09;100754.31;685123;28;1205;-79
2023/07/20 00:19:49;;;;;;;14.38;9.38;;;;;;;17.79;74.05;100765.75;685144;28;1374;-79
2023/07/20 00:20:11;;;;;;;16.00;9.57;;;;;;;17.75;73.91;100751.69;687844;28;1098;-78
2023/07/20 00:20:31;;;;;;;15.20;9.63;;;;;;;17.77;73.94;100760.47;687698;28;1101;-78
2023/07/20 00:20:52;;;;;;;14.70;9.23;;;;;;;17.79;74.10;100764.00;687782;28;1110;-78
2023/07/20 00:21:12;;;;;;;13.85;9.35;;;;;;;17.74;74.06;100749.94;690389;28;1070;-78
2023/07/20 00:21:33;;;;;;;13.03;9.20;;;;;;;17.78;73.95;100746.38;685109;28;1270;-78
2023/07/20 00:21:54;;;;;;;12.13;8.70;;;;;;;17.79;73.82;100753.44;685676;28;1208;-78
2023/07/20 00:22:15;;;;;;;12.20;8.80;;;;;;;17.78;73.92;100749.03;684769;28;961;-79
2023/07/20 00:22:36;;;;;;;12.23;8.50;;;;;;;17.79;73.96;100756.09;682454;28;902;-78
2023/07/20 00:22:57;;;;;;;13.90;8.80;;;;;;;17.76;73.96;100739.38;685297;28;1285;-79
2023/07/20 00:23:20;;;;;;;14.48;8.85;;;;;;;17.82;73.96;100749.88;682508;28;1457;-78
2023/07/20 00:23:41;;;;;;;14.07;9.05;;;;;;;17.78;73.95;100754.28;682597;29;865;-78
2023/07/20 00:24:01;;;;;;;13.17;9.40;;;;;;;17.77;73.92;100743.75;682611;28;1263;-78
2023/07/20 00:24:23;;;;;;;13.00;9.10;;;;;;;17.78;74.05;100751.66;687960;28;1087;-78
2023/07/20 00:24:45;;;;;;;12.02;9.07;;;;;;;17.77;73.87;100747.25;688002;28;964;-79
2023/07/20 00:25:06;;;;;;;13.55;9.00;;;;;;;17.76;74.06;100736.72;685148;28;1217;-78
2023/07/20 00:25:27;;;;;;;13.75;9.15;;;;;;;17.84;74.01;100750.78;687891;28;961;-79
2023/07/20 00:25:48;;;;;;;12.90;8.97;;;;;;;17.76;73.99;100742.88;681989;28;1050;-78
2023/07/20 00:26:09;;;;;;;9.98;8.43;;;;;;;17.79;74.02;100740.25;685155;28;969;-78
2023/07/20 00:26:29;;;;;;;10.17;8.30;;;;;;;17.76;73.95;100742.00;682497;28;1220;-78
2023/07/20 00:26:50;;;;;;;10.32;8.35;;;;;;;17.84;74.22;100750.78;680189;28;1285;-78
2023/07/20 00:27:10;;;;;;;10.63;8.65;;;;;;;17.80;73.91;100747.28;682576;28;978;-78
2023/07/20 00:27:31;;;;;;;12.87;9.00;;;;;;;17.81;74.15;100750.78;682303;28;1279;-78
2023/07/20 00:27:52;;;;;;;13.55;9.48;;;;;;;17.79;73.93;100742.00;682591;28;1209;-78
2023/07/20 00:28:14;;;;;;;14.63;9.30;;;;;;;17.80;73.84;100738.47;682462;28;1079;-78
2023/07/20 00:28:36;;;;;;;13.13;8.88;;;;;;;17.81;73.82;100745.50;687861;28;969;-79
2023/07/20 00:28:57;;;;;;;13.52;8.40;;;;;;;17.84;73.96;100755.19;682699;28;1345;-78
2023/07/20 00:29:17;;;;;;;12.10;8.60;;;;;;;17.84;73.86;100748.16;679685;28;1235;-78
2023/07/20 00:29:38;;;;;;;13.23;8.90;;;;;;;17.81;73.87;100745.50;682527;28;1260;-78
2023/07/20 00:29:59;;;;;;;12.20;8.90;;;;;;;17.83;73.79;100750.78;679829;29;1092;-78
2023/07/20 00:30:19;;;;;;;12.20;8.70;;;;;;;17.83;73.77;100742.88;682781;28;1277;-78
2023/07/20 00:30:40;;;;;;;10.57;8.63;;;;;;;17.89;73.89;100754.28;682503;28;1219;-79
2023/07/20 00:31:01;;;;;;;12.50;9.05;;;;;;;17.86;73.68;100748.13;682316;29;1168;-78
2023/07/20 00:31:22;;;;;;;12.90;9.13;;;;;;;17.84;73.52;100744.63;682456;29;1083;-78
2023/07/20 00:31:43;;;;;;;14.00;9.27;;;;;;;17.86;73.73;100745.47;687896;28;1024;-78
2023/07/20 00:32:05;;;;;;;13.52;9.40;;;;;;;17.81;73.55;100740.22;685219;28;1207;-78
2023/07/20 00:32:25;;;;;;;11.63;8.80;;;;;;;17.89;73.33;100756.06;687877;28;1024;-78
2023/07/20 00:32:46;;;;;;;10.90;8.60;;;;;;;17.90;73.44;100757.81;682548;28;1178;-78
2023/07/20 00:33:10;;;;;;;9.38;7.80;;;;;;;17.86;73.48;100750.75;682522;28;1122;-78
2023/07/20 00:33:31;;;;;;;10.73;7.90;;;;;;;17.87;73.50;100750.78;683115;28;1043;-78
2023/07/20 00:33:53;;;;;;;12.27;8.40;;;;;;;17.87;73.48;100752.50;682597;28;985;-78
2023/07/20 00:34:13;;;;;;;12.52;8.57;;;;;;;17.86;73.42;100748.13;682335;28;1982;-78
2023/07/20 00:34:34;;;;;;;13.10;8.50;;;;;;;17.88;73.35;100749.88;679834;29;1339;-78
2023/07/20 00:34:55;;;;;;;12.02;8.38;;;;;;;17.88;73.29;100754.31;680050;29;1099;-79
2023/07/20 00:35:16;;;;;;;12.80;8.50;;;;;;;17.89;73.47;100753.41;682423;28;1137;-79
2023/07/20 00:35:40;;;;;;;12.20;8.65;;;;;;;17.91;73.30;100754.28;681825;29;1070;-80
2023/07/20 00:36:01;;;;;;;11.93;8.52;;;;;;;17.86;73.43;100748.13;679737;28;1250;-78
2023/07/20 00:36:21;;;;;;;10.95;8.45;;;;;;;17.87;73.54;100749.88;682448;28;1079;-78
2023/07/20 00:36:42;;;;;;;10.98;8.55;;;;;;;17.84;73.37;100742.88;682524;29;1118;-78
2023/07/20 00:37:03;;;;;;;14.20;8.70;;;;;;;17.91;73.47;100754.28;682326;29;1006;-79
2023/07/20 00:37:24;;;;;;;14.13;8.80;;;;;;;17.92;73.31;100763.94;684511;28;1360;-78
2023/07/20 00:37:44;;;;;;;13.97;8.90;;;;;;;17.88;73.54;100747.25;682304;29;1262;-79
2023/07/20 00:38:05;;;;;;;11.35;8.80;;;;;;;17.89;73.12;100753.41;682717;28;966;-78
2023/07/20 00:38:26;;;;;;;12.73;8.95;;;;;;;17.91;73.47;100755.19;682515;28;1450;-79
2023/07/20 00:38:47;;;;;;;13.40;9.15;;;;;;;17.86;73.33;100743.75;685133;28;1173;-78
2023/07/20 00:39:07;;;;;;;14.70;9.10;;;;;;;17.94;73.41;100762.19;683173;28;1114;-78
2023/07/20 00:39:29;;;;;;;13.20;9.00;;;;;;;17.95;73.22;100763.97;687827;28;1092;-78
2023/07/20 00:39:50;;;;;;;13.27;8.97;;;;;;;17.90;73.10;100752.53;685246;28;1065;-78
2023/07/20 00:40:12;;;;;;;13.75;9.25;;;;;;;17.88;73.12;100746.38;682618;28;1371;-79
2023/07/20 00:40:40;;;;;;;15.63;9.25;;;;;;;17.92;73.10;100751.66;684906;28;1139;-78
2023/07/20 00:41:00;;;;;;;14.85;9.30;;;;;;;17.88;73.20;100754.31;687764;28;1283;-78
2023/07/20 00:41:21;;;;;;;14.52;9.00;;;;;;;17.86;73.04;100742.84;685130;28;1261;-79
2023/07/20 00:41:42;;;;;;;14.07;9.18;;;;;;;17.93;73.22;100757.78;687439;28;1154;-79
2023/07/20 00:42:03;;;;;;;16.17;9.20;;;;;;;17.85;72.91;100747.25;682450;29;1093;-78
2023/07/20 00:42:23;;;;;;;16.80;9.23;;;;;;;17.86;72.96;100742.84;682419;29;1023;-78
2023/07/20 00:42:45;;;;;;;14.95;9.05;;;;;;;17.90;72.96;100749.88;685035;28;1468;-78
2023/07/20 00:43:06;;;;;;;12.55;9.07;;;;;;;17.85;72.73;100746.38;685141;28;1066;-78
2023/07/20 00:43:27;;;;;;;10.98;8.98;;;;;;;17.82;72.93;100741.97;682344;28;1125;-78
2023/07/20 00:43:48;;;;;;;11.65;9.20;;;;;;;17.88;72.96;100751.66;679831;28;1440;-78
2023/07/20 00:44:08;;;;;;;12.40;9.40;;;;;;;17.92;72.94;100756.03;683140;28;1207;-78
2023/07/20 00:44:29;;;;;;;13.50;9.60;;;;;;;17.93;73.03;100755.16;682548;29;1113;-78
2023/07/20 00:44:50;;;;;;;13.27;9.35;;;;;;;17.84;72.73;100742.88;684972;28;958;-77
2023/07/20 00:45:10;;;;;;;11.93;9.50;;;;;;;17.85;72.66;100741.09;685081;28;1057;-78
2023/07/20 00:45:33;;;;;;;10.93;9.05;;;;;;;17.94;72.58;100749.88;685457;28;1304;-79
2023/07/20 00:45:53;;;;;;;10.13;8.63;;;;;;;17.90;72.75;100747.25;684851;28;952;-79
2023/07/20 00:46:14;;;;;;;9.77;8.00;;;;;;;17.88;72.57;100744.59;685104;28;988;-78
2023/07/20 00:46:35;;;;;;;9.90;8.10;;;;;;;17.90;72.65;100744.59;682475;29;1019;-78
2023/07/20 00:46:56;;;;;;;10.07;8.27;;;;;;;17.96;72.60;100752.53;679857;29;982;-78
2023/07/20 00:47:17;;;;;;;10.45;8.60;;;;;;;17.93;72.52;100750.75;679697;29;1184;-78
2023/07/20 00:47:37;;;;;;;12.50;8.90;;;;;;;17.90;72.47;100739.31;685039;28;1157;-78
2023/07/20 00:47:59;;;;;;;12.90;8.80;;;;;;;17.87;72.27;100737.56;685133;28;1139;-78
2023/07/20 00:48:20;;;;;;;12.98;8.77;;;;;;;17.92;72.56;100748.13;682352;29;1429;-78
2023/07/20 00:48:42;;;;;;;11.30;8.63;;;;;;;17.89;72.58;100741.06;682516;29;1116;-78
2023/07/20 00:49:04;;;;;;;12.60;8.93;;;;;;;17.92;72.44;100746.38;682411;29;1099;-78
2023/07/20 00:49:25;;;;;;;12.93;8.93;;;;;;;17.92;72.41;100745.47;685182;28;1111;-78
2023/07/20 00:49:46;;;;;;;14.57;9.07;;;;;;;17.89;72.47;100742.84;683411;28;1100;-78
2023/07/20 00:50:07;;;;;;;14.10;9.20;;;;;;;17.90;72.34;100741.97;682349;29;1037;-78
2023/07/20 00:50:29;;;;;;;14.02;9.30;;;;;;;17.91;72.49;100741.97;685027;28;1235;-78
2023/07/20 00:50:50;;;;;;;11.93;9.40;;;;;;;17.86;72.51;100734.94;687790;28;1076;-78
2023/07/20 00:51:11;;;;;;;12.38;9.43;;;;;;;17.92;72.32;100749.00;685063;28;1314;-78
2023/07/20 00:51:31;;;;;;;12.15;9.50;;;;;;;17.88;72.46;100741.09;682478;29;1106;-78
2023/07/20 00:51:52;;;;;;;12.73;9.23;;;;;;;17.87;72.40;100740.22;677174;29;1192;-78
2023/07/20 00:52:14;;;;;;;12.23;8.90;;;;;;;17.89;72.38;100738.44;679788;29;1091;-78
2023/07/20 00:52:41;;;;;;;12.55;8.85;;;;;;;17.90;72.42;100747.25;685014;28;1033;-78
2023/07/20 00:53:07;;;;;;;11.98;8.85;;;;;;;17.88;72.19;100735.81;687600;28;1188;-79
2023/07/20 00:53:28;;;;;;;13.73;8.75;;;;;;;17.92;72.21;100748.13;687719;28;1079;-79
2023/07/20 00:53:49;;;;;;;13.00;8.55;;;;;;;17.87;72.36;100740.22;682523;29;915;-78
2023/07/20 00:54:10;;;;;;;12.70;8.13;;;;;;;17.89;72.27;100742.84;674296;29;1976;-78
2023/07/20 00:54:30;;;;;;;11.75;8.27;;;;;;;17.89;72.38;100740.22;682493;29;1005;-79
2023/07/20 00:54:56;;;;;;;12.07;8.73;;;;;;;17.84;72.34;100734.94;682587;28;1188;-78
2023/07/20 00:55:18;;;;;;;13.30;8.98;;;;;;;17.89;72.29;100742.84;685312;28;1084;-78
2023/07/20 00:55:39;;;;;;;11.90;8.70;;;;;;;17.88;72.28;100738.47;676675;29;998;-78
2023/07/20 00:56:01;;;;;;;12.60;8.50;;;;;;;17.92;72.45;100749.00;685018;28;1559;-77
2023/07/20 00:56:22;;;;;;;14.10;8.75;;;;;;;17.89;72.32;100741.06;687859;28;1159;-79
2023/07/20 00:56:44;;;;;;;14.45;9.07;;;;;;;17.90;72.20;100739.31;687902;28;890;-78
2023/07/20 00:57:07;;;;;;;13.55;8.90;;;;;;;17.95;72.16;100748.13;687732;28;1109;-78
2023/07/20 00:57:28;;;;;;;13.68;9.23;;;;;;;17.90;72.26;100739.31;682414;29;1102;-78
2023/07/20 00:57:49;;;;;;;13.20;9.18;;;;;;;17.90;72.12;100740.19;680036;28;1336;-78
2023/07/20 00:58:10;;;;;;;12.60;9.20;;;;;;;17.92;72.29;100737.56;685029;28;1320;-79
2023/07/20 00:58:31;;;;;;;12.40;9.07;;;;;;;17.89;72.17;100733.16;687790;28;1000;-78
2023/07/20 00:59:01;;;;;;;13.40;8.80;;;;;;;17.94;72.08;100743.69;687915;28;933;-79
2023/07/20 00:59:23;;;;;;;14.00;8.80;;;;;;;17.96;72.38;100744.59;679801;28;1877;-78
2023/07/20 00:59:44;;;;;;;12.07;9.00;;;;;;;17.88;72.17;100730.53;682604;28;1220;-79
2023/07/20 01:00:08;;;;;;;13.35;9.55;;;;;;;17.93;71.98;100740.19;685020;28;1331;-78
2023/07/20 01:00:28;;;;;;;13.82;9.50;;;;;;;17.88;71.99;100730.53;687436;28;1471;-78
2023/07/20 01:00:49;;;;;;;14.70;9.60;;;;;;;17.93;72.06;100742.84;685177;28;1028;-78
2023/07/20 01:01:10;;;;;;;16.88;9.30;;;;;;;17.93;71.94;100740.19;690413;28;989;-78
2023/07/20 01:01:31;;;;;;;15.93;9.20;;;;;;;17.92;71.86;100741.09;685031;28;1062;-78
2023/07/20 01:01:52;;;;;;;17.10;8.90;;;;;;;17.95;71.82;100742.84;687639;28;857;-78
2023/07/20 01:02:12;;;;;;;13.00;8.88;;;;;;;17.90;71.81;100739.31;687731;28;1108;-78
2023/07/20 01:02:34;;;;;;;12.40;8.90;;;;;;;17.96;71.71;100739.31;682383;28;957;-78
2023/07/20 01:02:55;;;;;;;11.60;9.43;;;;;;;17.98;71.85;100742.81;683036;28;1324;-78
2023/07/20 01:03:16;;;;;;;12.07;9.43;;;;;;;17.93;71.54;100739.31;684962;28;1231;-78
2023/07/20 01:03:37;;;;;;;12.68;9.48;;;;;;;17.98;71.90;100747.22;685881;28;973;-77
2023/07/20 01:03:58;;;;;;;12.80;9.07;;;;;;;17.92;71.75;100732.28;683263;28;1336;-78
2023/07/20 01:04:19;;;;;;;12.57;9.00;;;;;;;17.87;71.84;100732.28;685003;28;1166;-78
2023/07/20 01:04:40;;;;;;;11.25;8.75;;;;;;;17.97;71.63;100743.72;684963;28;1084;-78
2023/07/20 01:05:02;;;;;;;10.85;8.60;;;;;;;17.87;71.74;100728.75;679614;29;1441;-78
2023/07/20 01:05:35;;;;;;;12.02;8.70;;;;;;;17.88;71.69;100731.41;677159;29;1408;-78
2023/07/20 01:06:20;;;;;;;15.18;8.93;;;;;;;17.98;71.70;100742.81;683957;28;1290;-79
2023/07/20 01:06:59;;;;;;;11.25;8.70;;;;;;;17.98;71.67;100748.09;682588;28;1232;-78
2023/07/20 01:07:29;;;;;;;11.10;8.02;;;;;;;17.94;71.62;100741.06;687200;28;1342;-78
2023/07/20 01:08:09;;;;;;;12.40;8.23;;;;;;;17.97;71.52;100742.81;682563;28;1089;-79
2023/07/20 01:08:40;;;;;;;14.18;8.98;;;;;;;17.99;71.64;100748.97;682333;29;1982;-78
2023/07/20 01:09:11;;;;;;;15.45;9.45;;;;;;;17.93;71.60;100736.66;687745;28;1135;-78
2023/07/20 01:09:54;;;;;;;13.75;9.27;;;;;;;17.94;71.35;100736.66;685448;28;1672;-78
2023/07/20 01:10:25;;;;;;;12.52;8.88;;;;;;;17.91;71.44;100741.09;684967;28;1068;-78
2023/07/20 01:10:59;;;;;;;12.40;8.85;;;;;;;17.95;71.37;100748.13;690332;28;1229;-78
2023/07/20 01:11:39;;;;;;;11.57;8.88;;;;;;;17.90;71.28;100739.31;683237;28;1071;-78
2023/07/20 01:12:07;;;;;;;11.77;8.43;;;;;;;17.89;71.44;100734.94;685051;28;2309;-78
2023/07/20 01:12:38;;;;;;;12.00;8.38;;;;;;;17.87;71.47;100734.03;684647;28;1629;-78
2023/07/20 01:13:01;;;;;;;11.25;8.70;;;;;;;17.83;71.14;100729.66;677691;28;1389;-78
2023/07/20 01:13:23;;;;;;;12.30;9.15;;;;;;;17.86;71.43;100737.56;682368;28;1238;-78
2023/07/20 01:13:44;;;;;;;12.75;9.50;;;;;;;17.89;71.18;100738.44;683460;28;1035;-78
2023/07/20 01:14:05;;;;;;;12.85;9.30;;;;;;;17.89;71.10;100743.72;687773;28;1912;-78
2023/07/20 01:14:26;;;;;;;13.38;8.90;;;;;;;17.87;71.30;100734.03;682474;29;1088;-78
2023/07/20 01:14:47;;;;;;;13.60;8.77;;;;;;;17.86;71.25;100738.47;687696;28;1168;-78
2023/07/20 01:15:08;;;;;;;12.98;8.70;;;;;;;17.83;71.24;100732.31;687754;28;1243;-78
2023/07/20 01:15:29;;;;;;;12.75;9.00;;;;;;;17.85;71.38;100741.09;687691;28;1183;-78
2023/07/20 01:15:53;;;;;;;11.75;8.63;;;;;;;17.89;71.33;100741.06;687231;28;889;-78
2023/07/20 01:16:13;;;;;;;12.75;8.70;;;;;;;17.86;71.22;100738.47;679845;29;1038;-79
2023/07/20 01:16:34;;;;;;;13.83;9.00;;;;;;;17.85;71.19;100738.44;684772;28;1732;-78
2023/07/20 01:16:55;;;;;;;13.40;9.40;;;;;;;17.83;71.22;100732.31;682884;28;1461;-78
2023/07/20 01:17:15;;;;;;;13.10;9.25;;;;;;;17.84;71.30;100729.66;684963;28;1264;-78
2023/07/20 01:17:36;;;;;;;14.07;9.00;;;;;;;17.90;71.33;100734.06;682408;28;1241;-78
2023/07/20 01:17:57;;;;;;;13.70;8.57;;;;;;;17.87;71.28;100734.03;685182;28;1127;-78
2023/07/20 01:18:18;;;;;;;13.30;8.80;;;;;;;17.91;71.25;100734.06;682365;29;1197;-79
2023/07/20 01:18:39;;;;;;;11.95;8.93;;;;;;;17.94;71.32;100735.78;682323;28;1077;-78
2023/07/20 01:19:00;;;;;;;15.38;9.48;;;;;;;17.92;71.05;100727.00;682308;28;1259;-78
2023/07/20 01:19:20;;;;;;;14.82;9.10;;;;;;;17.94;71.16;100733.13;682214;28;1177;-78
2023/07/20 01:19:41;;;;;;;14.38;8.90;;;;;;;17.96;71.02;100736.69;685176;28;1253;-78
2023/07/20 01:20:03;;;;;;;12.98;8.70;;;;;;;18.00;70.90;100748.09;687668;28;1126;-77
2023/07/20 01:20:24;;;;;;;13.65;9.18;;;;;;;18.03;71.15;100745.44;684946;28;1028;-78
2023/07/20 01:20:44;;;;;;;13.10;8.88;;;;;;;18.03;70.93;100748.97;682384;29;913;-78
2023/07/20 01:21:10;;;;;;;12.20;9.10;;;;;;;18.05;71.01;100744.56;679433;29;1075;-78
2023/07/20 01:21:39;;;;;;;11.50;9.00;;;;;;;17.91;70.98;100727.88;679690;29;987;-78
2023/07/20 01:22:09;;;;;;;13.40;9.48;;;;;;;17.98;71.07;100748.09;687565;28;1194;-78
2023/07/20 01:22:35;;;;;;;13.10;9.20;;;;;;;18.00;71.16;100751.59;682353;29;1089;-78
2023/07/20 01:23:17;;;;;;;11.13;8.98;;;;;;;18.02;71.30;100744.53;685122;28;1266;-79
2023/07/20 01:24:11;;;;;;;12.50;8.50;;;;;;;18.05;71.15;100744.56;679631;29;1148;-78
2023/07/20 01:24:50;;;;;;;15.80;9.77;;;;;;;18.06;70.93;100745.41;676656;29;1133;-79
2023/07/20 01:25:26;;;;;;;15.52;9.55;;;;;;;18.07;70.86;100742.78;682145;28;1015;-78
2023/07/20 01:26:24;;;;;;;14.05;9.93;;;;;;;18.06;70.93;100748.94;681856;29;1003;-78
2023/07/20 01:27:23;;;;;;;15.05;10.65;;;;;;;18.08;70.75;100744.53;679799;29;892;-78
2023/07/20 01:27:55;;;;;;;15.60;9.30;;;;;;;18.08;70.70;100757.75;684348;28;1016;-77
2023/07/20 01:28:26;;;;;;;14.48;10.00;;;;;;;18.08;70.68;100749.81;679512;29;1062;-78
2023/07/20 01:29:20;;;;;;;12.82;9.95;;;;;;;18.02;70.67;100739.28;682288;28;1094;-77
2023/07/20 01:30:11;;;;;;;10.82;9.10;;;;;;;18.08;70.63;100748.97;686950;28;1075;-77
2023/07/20 01:30:43;;;;;;;12.55;9.45;;;;;;;18.04;70.65;100739.28;680089;29;1101;-77
2023/07/20 01:31:27;;;;;;;14.95;9.30;;;;;;;18.09;70.68;100750.72;685040;28;1018;-77
2023/07/20 01:31:52;;;;;;;13.85;9.10;;;;;;;17.94;70.63;100720.84;687465;28;910;-77
2023/07/20 01:32:17;;;;;;;12.30;8.88;;;;;;;18.02;70.69;100741.91;682803;28;1264;-76
2023/07/20 01:32:40;;;;;;;13.32;9.20;;;;;;;18.02;70.88;100734.00;682421;29;1016;-77
2023/07/20 01:33:02;;;;;;;14.10;9.32;;;;;;;18.01;70.75;100737.50;684389;28;957;-77
2023/07/20 01:33:24;;;;;;;13.35;9.27;;;;;;;18.03;70.78;100741.06;689606;28;1045;-77
2023/07/20 01:33:46;;;;;;;13.43;9.00;;;;;;;18.07;70.40;100741.91;685145;28;1013;-77
2023/07/20 01:34:11;;;;;;;13.55;9.50;;;;;;;18.06;70.71;100735.75;679615;28;1974;-77
2023/07/20 01:34:36;;;;;;;15.93;10.00;;;;;;;18.04;70.84;100732.25;679750;29;1089;-77
2023/07/20 01:34:59;;;;;;;14.85;9.52;;;;;;;18.02;70.81;100739.28;682570;28;1451;-77
2023/07/20 01:35:22;;;;;;;17.00;9.60;;;;;;;18.05;70.87;100744.56;679779;29;1158;-77
2023/07/20 01:35:46;;;;;;;14.35;9.30;;;;;;;18.06;71.08;100741.03;690033;28;1213;-77
2023/07/20 01:36:08;;;;;;;12.05;9.10;;;;;;;18.04;70.69;100737.53;685430;28;1340;-77
2023/07/20 01:36:34;;;;;;;11.18;9.40;;;;;;;18.03;70.77;100735.78;679556;28;1334;-77
2023/07/20 01:36:57;;;;;;;11.38;9.18;;;;;;;18.07;70.89;100737.50;684580;28;1433;-78
2023/07/20 01:37:19;;;;;;;11.65;9.18;;;;;;;18.06;70.81;100738.38;684837;28;985;-78
2023/07/20 01:37:44;;;;;;;11.68;9.35;;;;;;;18.09;70.90;100743.66;684910;28;1176;-77
2023/07/20 01:38:07;;;;;;;11.93;9.13;;;;;;;18.04;70.86;100729.59;679525;28;1212;-77
2023/07/20 01:38:28;;;;;;;12.90;8.90;;;;;;;18.06;70.79;100735.75;682334;28;954;-78
2023/07/20 01:38:49;;;;;;;11.85;8.80;;;;;;;18.14;70.69;100745.41;687775;28;1049;-77
2023/07/20 01:39:11;;;;;;;11.85;9.23;;;;;;;18.06;70.80;100729.56;687572;28;1055;-78
2023/07/20 01:39:33;;;;;;;12.93;9.85;;;;;;;18.06;70.80;100734.84;687645;28;1001;-77
2023/07/20 01:39:57;;;;;;;12.43;9.77;;;;;;;18.10;70.71;100736.63;682395;29;879;-77
2023/07/20 01:40:18;;;;;;;12.50;9.13;;;;;;;18.07;70.60;100737.50;687721;28;1056;-78
2023/07/20 01:40:40;;;;;;;13.38;9.45;;;;;;;18.11;70.78;100740.13;682118;28;1226;-77
2023/07/20 01:41:02;;;;;;;14.07;9.55;;;;;;;18.07;70.72;100739.28;684940;28;1033;-78
2023/07/20 01:41:23;;;;;;;12.98;9.70;;;;;;;18.06;70.87;100735.75;682420;28;1212;-77
2023/07/20 01:41:44;;;;;;;12.60;9.40;;;;;;;18.06;70.85;100730.47;682354;28;1336;-78
2023/07/20 01:42:05;;;;;;;12.23;9.40;;;;;;;18.10;70.46;100741.91;682364;28;1006;-78
2023/07/20 01:42:26;;;;;;;13.43;9.43;;;;;;;18.07;70.92;100737.50;682206;28;1433;-78
2023/07/20 01:42:47;;;;;;;12.85;9.15;;;;;;;18.05;70.68;100733.09;682373;28;1175;-78
2023/07/20 01:43:08;;;;;;;11.52;9.10;;;;;;;18.02;70.81;100727.84;684815;28;1255;-78
2023/07/20 01:43:30;;;;;;;11.60;8.98;;;;;;;18.06;70.98;100724.28;684988;28;1348;-78
2023/07/20 01:43:50;;;;;;;13.93;9.65;;;;;;;18.06;70.92;100727.81;687801;28;1110;-77
2023/07/20 01:44:12;;;;;;;16.70;9.40;;;;;;;18.07;70.96;100737.50;685024;28;946;-78
2023/07/20 01:44:33;;;;;;;16.60;9.65;;;;;;;18.11;70.83;100742.75;684842;28;1239;-78
2023/07/20 01:44:54;;;;;;;16.55;9.30;;;;;;;18.02;70.86;100726.06;686680;28;1318;-78
2023/07/20 01:45:17;;;;;;;15.85;9.60;;;;;;;18.13;70.68;100741.00;679699;29;1090;-79
2023/07/20 01:45:39;;;;;;;16.40;9.25;;;;;;;18.02;70.85;100736.63;681968;28;1329;-77
2023/07/20 01:46:00;;;;;;;15.13;9.60;;;;;;;18.04;70.86;100737.53;682105;29;1193;-78
2023/07/20 01:46:21;;;;;;;12.98;9.50;;;;;;;17.99;71.24;100734.00;679644;28;1110;-77
2023/07/20 01:46:42;;;;;;;11.80;9.20;;;;;;;17.98;71.01;100732.25;682254;28;1131;-78
2023/07/20 01:47:03;;;;;;;11.60;8.85;;;;;;;18.02;71.21;100739.28;682277;28;1064;-78
2023/07/20 01:47:24;;;;;;;10.48;8.60;;;;;;;17.97;71.08;100730.50;684873;28;1124;-78
2023/07/20 01:47:45;;;;;;;10.50;8.60;;;;;;;17.99;71.06;100733.13;679780;29;1114;-78
2023/07/20 01:48:06;;;;;;;12.75;9.10;;;;;;;17.96;71.08;100734.03;684967;28;1032;-77
2023/07/20 01:48:26;;;;;;;12.30;9.05;;;;;;;18.01;70.87;100742.78;683907;28;1078;-77
2023/07/20 01:48:47;;;;;;;12.00;8.67;;;;;;;17.94;71.23;100731.38;682272;28;1520;-78
2023/07/20 01:49:07;;;;;;;9.98;8.07;;;;;;;17.92;71.28;100727.00;684868;28;1062;-78